Terminal Aerodrome Forecast
Issued by NWS

Current Version | Previous Version | Text Only | Print | Product List | Glossary On
Versions: 1 2 3 4 5 6 7 8 9 10 11 12 13 14 15 16 17
300
FTUS43 KLSX 241523 AAA
TAFCPS
TAF AMD
KCPS 241523Z 2415/2512 32010KT P6SM BKN025
     FM241800 32009KT P6SM VCSH BKN050
     FM250000 32008KT P6SM BKN070
     FM250500 30006KT P6SM SCT120=

USA.gov is the U.S. government's official web portal to all federal, state and local government web resources and services.